sensor_id;sensor_type;location;lat;lon;timestamp;P1;durP1;ratioP1;P2;durP2;ratioP2
22415;SDS011;12204;50.600;4.608;2023-06-10T00:03:27;5.53;;;3.22;;
22415;SDS011;12204;50.600;4.608;2023-06-10T00:08:32;7.70;;;3.30;;
22415;SDS011;12204;50.600;4.608;2023-06-10T00:13:35;7.18;;;3.25;;
22415;SDS011;12204;50.600;4.608;2023-06-10T00:18:39;6.25;;;3.08;;
22415;SDS011;12204;50.600;4.608;2023-06-10T00:23:44;5.30;;;3.40;;
22415;SDS011;12204;50.600;4.608;2023-06-10T00:28:48;7.05;;;3.30;;
22415;SDS011;12204;50.600;4.608;2023-06-10T00:33:51;7.40;;;3.40;;
22415;SDS011;12204;50.600;4.608;2023-06-10T00:38:56;5.32;;;3.38;;
22415;SDS011;12204;50.600;4.608;2023-06-10T00:44:00;6.95;;;3.63;;
22415;SDS011;12204;50.600;4.608;2023-06-10T00:49:04;6.00;;;3.70;;
22415;SDS011;12204;50.600;4.608;2023-06-10T00:54:12;6.93;;;3.67;;
22415;SDS011;12204;50.600;4.608;2023-06-10T00:59:16;5.93;;;3.38;;
22415;SDS011;12204;50.600;4.608;2023-06-10T01:04:20;8.45;;;3.80;;
22415;SDS011;12204;50.600;4.608;2023-06-10T01:09:28;6.93;;;3.72;;
22415;SDS011;12204;50.600;4.608;2023-06-10T01:14:42;7.13;;;3.97;;
22415;SDS011;12204;50.600;4.608;2023-06-10T01:19:52;6.50;;;3.67;;
22415;SDS011;12204;50.600;4.608;2023-06-10T01:24:59;7.07;;;3.55;;
22415;SDS011;12204;50.600;4.608;2023-06-10T01:30:06;6.22;;;3.60;;
22415;SDS011;12204;50.600;4.608;2023-06-10T01:35:17;6.07;;;3.47;;
22415;SDS011;12204;50.600;4.608;2023-06-10T01:40:29;6.20;;;3.67;;
22415;SDS011;12204;50.600;4.608;2023-06-10T01:45:33;5.50;;;3.65;;
22415;SDS011;12204;50.600;4.608;2023-06-10T01:50:37;6.70;;;3.90;;
22415;SDS011;12204;50.600;4.608;2023-06-10T01:55:42;5.40;;;3.60;;
22415;SDS011;12204;50.600;4.608;2023-06-10T02:00:45;7.15;;;3.55;;
22415;SDS011;12204;50.600;4.608;2023-06-10T02:05:49;5.65;;;3.45;;
22415;SDS011;12204;50.600;4.608;2023-06-10T02:10:54;7.35;;;3.67;;
22415;SDS011;12204;50.600;4.608;2023-06-10T02:15:57;6.40;;;3.55;;
22415;SDS011;12204;50.600;4.608;2023-06-10T02:21:03;7.10;;;3.60;;
22415;SDS011;12204;50.600;4.608;2023-06-10T02:26:08;6.32;;;3.75;;
22415;SDS011;12204;50.600;4.608;2023-06-10T02:31:11;7.45;;;3.70;;
22415;SDS011;12204;50.600;4.608;2023-06-10T02:36:16;5.88;;;3.70;;
22415;SDS011;12204;50.600;4.608;2023-06-10T02:41:21;8.20;;;3.95;;
22415;SDS011;12204;50.600;4.608;2023-06-10T02:51:31;9.30;;;3.58;;
22415;SDS011;12204;50.600;4.608;2023-06-10T02:56:38;8.32;;;4.00;;
22415;SDS011;12204;50.600;4.608;2023-06-10T03:01:49;6.75;;;3.78;;
22415;SDS011;12204;50.600;4.608;2023-06-10T03:06:53;6.82;;;3.67;;
22415;SDS011;12204;50.600;4.608;2023-06-10T03:12:04;8.43;;;3.50;;
22415;SDS011;12204;50.600;4.608;2023-06-10T03:17:16;6.32;;;3.38;;
22415;SDS011;12204;50.600;4.608;2023-06-10T03:22:20;8.68;;;3.67;;
22415;SDS011;12204;50.600;4.608;2023-06-10T03:27:35;6.07;;;3.45;;
22415;SDS011;12204;50.600;4.608;2023-06-10T03:32:41;7.13;;;3.38;;
22415;SDS011;12204;50.600;4.608;2023-06-10T03:37:49;6.25;;;3.75;;
22415;SDS011;12204;50.600;4.608;2023-06-10T03:42:53;6.45;;;3.50;;
22415;SDS011;12204;50.600;4.608;2023-06-10T03:47:57;8.55;;;3.67;;
22415;SDS011;12204;50.600;4.608;2023-06-10T03:53:09;6.45;;;3.63;;
22415;SDS011;12204;50.600;4.608;2023-06-10T03:58:16;7.65;;;3.38;;
22415;SDS011;12204;50.600;4.608;2023-06-10T04:03:20;7.65;;;3.67;;
22415;SDS011;12204;50.600;4.608;2023-06-10T04:08:26;7.00;;;3.70;;
22415;SDS011;12204;50.600;4.608;2023-06-10T04:13:30;6.40;;;3.80;;
22415;SDS011;12204;50.600;4.608;2023-06-10T04:18:34;6.03;;;3.50;;
22415;SDS011;12204;50.600;4.608;2023-06-10T04:23:41;6.03;;;3.45;;
22415;SDS011;12204;50.600;4.608;2023-06-10T04:28:46;7.47;;;3.78;;
22415;SDS011;12204;50.600;4.608;2023-06-10T04:33:53;6.55;;;3.42;;
22415;SDS011;12204;50.600;4.608;2023-06-10T04:38:58;6.15;;;3.63;;
22415;SDS011;12204;50.600;4.608;2023-06-10T04:44:05;6.03;;;3.60;;
22415;SDS011;12204;50.600;4.608;2023-06-10T04:49:08;7.13;;;3.60;;
22415;SDS011;12204;50.600;4.608;2023-06-10T04:54:12;6.85;;;3.60;;
22415;SDS011;12204;50.600;4.608;2023-06-10T04:59:17;7.75;;;3.70;;
22415;SDS011;12204;50.600;4.608;2023-06-10T05:04:20;6.90;;;4.00;;
22415;SDS011;12204;50.600;4.608;2023-06-10T05:09:24;6.88;;;3.95;;
22415;SDS011;12204;50.600;4.608;2023-06-10T05:14:29;8.35;;;4.07;;
22415;SDS011;12204;50.600;4.608;2023-06-10T05:19:32;7.15;;;3.65;;
22415;SDS011;12204;50.600;4.608;2023-06-10T05:24:37;8.45;;;3.83;;
22415;SDS011;12204;50.600;4.608;2023-06-10T05:29:42;6.55;;;4.00;;
22415;SDS011;12204;50.600;4.608;2023-06-10T05:34:46;6.10;;;4.03;;
22415;SDS011;12204;50.600;4.608;2023-06-10T05:39:50;6.95;;;3.97;;
22415;SDS011;12204;50.600;4.608;2023-06-10T05:44:55;7.13;;;4.07;;
22415;SDS011;12204;50.600;4.608;2023-06-10T05:49:58;8.70;;;3.90;;
22415;SDS011;12204;50.600;4.608;2023-06-10T05:55:02;7.32;;;4.35;;
22415;SDS011;12204;50.600;4.608;2023-06-10T06:00:08;7.25;;;4.28;;
22415;SDS011;12204;50.600;4.608;2023-06-10T06:05:13;7.18;;;4.47;;
22415;SDS011;12204;50.600;4.608;2023-06-10T06:10:17;7.75;;;4.63;;
22415;SDS011;12204;50.600;4.608;2023-06-10T06:15:22;6.72;;;4.40;;
22415;SDS011;12204;50.600;4.608;2023-06-10T06:20:25;7.60;;;4.25;;
22415;SDS011;12204;50.600;4.608;2023-06-10T06:25:29;8.32;;;4.38;;
22415;SDS011;12204;50.600;4.608;2023-06-10T06:30:34;6.65;;;4.20;;
22415;SDS011;12204;50.600;4.608;2023-06-10T06:35:38;8.30;;;4.20;;
22415;SDS011;12204;50.600;4.608;2023-06-10T06:40:41;10.70;;;4.32;;
22415;SDS011;12204;50.600;4.608;2023-06-10T06:45:46;7.22;;;4.05;;
22415;SDS011;12204;50.600;4.608;2023-06-10T06:50:50;9.88;;;4.97;;
22415;SDS011;12204;50.600;4.608;2023-06-10T06:55:53;9.80;;;4.70;;
22415;SDS011;12204;50.600;4.608;2023-06-10T07:00:58;12.00;;;5.03;;
22415;SDS011;12204;50.600;4.608;2023-06-10T07:06:01;9.43;;;4.82;;
22415;SDS011;12204;50.600;4.608;2023-06-10T07:11:26;9.10;;;4.35;;
22415;SDS011;12204;50.600;4.608;2023-06-10T07:16:31;13.38;;;4.78;;
22415;SDS011;12204;50.600;4.608;2023-06-10T07:21:35;7.93;;;4.40;;
22415;SDS011;12204;50.600;4.608;2023-06-10T07:26:39;7.93;;;4.80;;
22415;SDS011;12204;50.600;4.608;2023-06-10T07:31:44;8.35;;;4.82;;
22415;SDS011;12204;50.600;4.608;2023-06-10T07:36:47;8.45;;;4.80;;
22415;SDS011;12204;50.600;4.608;2023-06-10T07:41:50;10.02;;;5.07;;
22415;SDS011;12204;50.600;4.608;2023-06-10T07:46:56;7.80;;;4.60;;
22415;SDS011;12204;50.600;4.608;2023-06-10T07:52:00;7.70;;;4.55;;
22415;SDS011;12204;50.600;4.608;2023-06-10T07:57:03;7.45;;;4.53;;
22415;SDS011;12204;50.600;4.608;2023-06-10T08:02:10;7.15;;;4.50;;
22415;SDS011;12204;50.600;4.608;2023-06-10T08:07:14;6.97;;;4.10;;
22415;SDS011;12204;50.600;4.608;2023-06-10T08:12:19;7.25;;;4.40;;
22415;SDS011;12204;50.600;4.608;2023-06-10T08:17:24;6.97;;;4.65;;
22415;SDS011;12204;50.600;4.608;2023-06-10T08:22:27;7.25;;;3.97;;
22415;SDS011;12204;50.600;4.608;2023-06-10T08:27:31;7.85;;;3.88;;
22415;SDS011;12204;50.600;4.608;2023-06-10T08:32:36;5.53;;;3.38;;
22415;SDS011;12204;50.600;4.608;2023-06-10T08:37:39;6.00;;;4.00;;
22415;SDS011;12204;50.600;4.608;2023-06-10T08:42:45;6.72;;;4.00;;
22415;SDS011;12204;50.600;4.608;2023-06-10T08:48:00;9.25;;;4.03;;
22415;SDS011;12204;50.600;4.608;2023-06-10T08:53:09;6.97;;;4.18;;
22415;SDS011;12204;50.600;4.608;2023-06-10T08:58:19;5.85;;;3.50;;
22415;SDS011;12204;50.600;4.608;2023-06-10T09:03:26;6.75;;;3.47;;
22415;SDS011;12204;50.600;4.608;2023-06-10T09:08:30;8.15;;;3.55;;
22415;SDS011;12204;50.600;4.608;2023-06-10T09:13:36;6.72;;;3.58;;
22415;SDS011;12204;50.600;4.608;2023-06-10T09:18:40;7.60;;;3.90;;
22415;SDS011;12204;50.600;4.608;2023-06-10T09:23:45;7.78;;;4.20;;
22415;SDS011;12204;50.600;4.608;2023-06-10T09:28:49;7.30;;;3.70;;
22415;SDS011;12204;50.600;4.608;2023-06-10T09:33:54;7.45;;;3.60;;
22415;SDS011;12204;50.600;4.608;2023-06-10T09:38:57;7.35;;;3.58;;
22415;SDS011;12204;50.600;4.608;2023-06-10T09:44:01;7.20;;;3.65;;
22415;SDS011;12204;50.600;4.608;2023-06-10T09:49:16;7.82;;;3.83;;
22415;SDS011;12204;50.600;4.608;2023-06-10T09:54:20;6.75;;;4.00;;
22415;SDS011;12204;50.600;4.608;2023-06-10T09:59:28;7.13;;;3.58;;
22415;SDS011;12204;50.600;4.608;2023-06-10T10:04:35;7.30;;;4.00;;
22415;SDS011;12204;50.600;4.608;2023-06-10T10:09:39;6.38;;;3.60;;
22415;SDS011;12204;50.600;4.608;2023-06-10T10:14:45;5.50;;;3.22;;
22415;SDS011;12204;50.600;4.608;2023-06-10T10:19:53;14.50;;;3.80;;
22415;SDS011;12204;50.600;4.608;2023-06-10T10:25:06;7.25;;;3.50;;
22415;SDS011;12204;50.600;4.608;2023-06-10T10:30:14;7.25;;;3.80;;
22415;SDS011;12204;50.600;4.608;2023-06-10T10:35:24;7.78;;;3.65;;
22415;SDS011;12204;50.600;4.608;2023-06-10T10:40:28;6.50;;;3.70;;
22415;SDS011;12204;50.600;4.608;2023-06-10T10:45:34;6.88;;;4.22;;
22415;SDS011;12204;50.600;4.608;2023-06-10T10:50:39;5.63;;;3.45;;
22415;SDS011;12204;50.600;4.608;2023-06-10T10:55:42;7.55;;;4.20;;
22415;SDS011;12204;50.600;4.608;2023-06-10T11:01:09;7.55;;;4.00;;
22415;SDS011;12204;50.600;4.608;2023-06-10T11:06:17;7.55;;;4.22;;
22415;SDS011;12204;50.600;4.608;2023-06-10T11:16:27;6.32;;;3.63;;
22415;SDS011;12204;50.600;4.608;2023-06-10T11:21:33;5.65;;;3.63;;
22415;SDS011;12204;50.600;4.608;2023-06-10T11:27:17;6.03;;;3.30;;
22415;SDS011;12204;50.600;4.608;2023-06-10T11:32:24;7.03;;;3.88;;
22415;SDS011;12204;50.600;4.608;2023-06-10T11:37:35;6.93;;;3.88;;
22415;SDS011;12204;50.600;4.608;2023-06-10T11:42:38;6.63;;;3.75;;
22415;SDS011;12204;50.600;4.608;2023-06-10T11:47:55;6.50;;;3.50;;
22415;SDS011;12204;50.600;4.608;2023-06-10T11:53:01;7.75;;;3.40;;
22415;SDS011;12204;50.600;4.608;2023-06-10T11:58:05;7.00;;;3.47;;
22415;SDS011;12204;50.600;4.608;2023-06-10T12:03:15;7.93;;;4.38;;
22415;SDS011;12204;50.600;4.608;2023-06-10T12:08:21;8.23;;;4.28;;
22415;SDS011;12204;50.600;4.608;2023-06-10T12:13:26;6.25;;;3.70;;
22415;SDS011;12204;50.600;4.608;2023-06-10T12:18:30;5.78;;;3.58;;
22415;SDS011;12204;50.600;4.608;2023-06-10T12:23:35;7.43;;;4.30;;
22415;SDS011;12204;50.600;4.608;2023-06-10T12:28:39;7.78;;;4.30;;
22415;SDS011;12204;50.600;4.608;2023-06-10T12:33:42;6.40;;;4.13;;
22415;SDS011;12204;50.600;4.608;2023-06-10T12:38:49;6.40;;;3.83;;
22415;SDS011;12204;50.600;4.608;2023-06-10T12:43:53;5.93;;;3.90;;
22415;SDS011;12204;50.600;4.608;2023-06-10T12:48:57;7.53;;;4.45;;
22415;SDS011;12204;50.600;4.608;2023-06-10T12:54:02;6.88;;;4.00;;
22415;SDS011;12204;50.600;4.608;2023-06-10T12:59:06;8.98;;;4.45;;
22415;SDS011;12204;50.600;4.608;2023-06-10T13:04:09;7.70;;;4.40;;
22415;SDS011;12204;50.600;4.608;2023-06-10T13:09:15;8.25;;;4.72;;
22415;SDS011;12204;50.600;4.608;2023-06-10T13:14:18;10.27;;;4.75;;
22415;SDS011;12204;50.600;4.608;2023-06-10T13:19:26;6.60;;;4.13;;
22415;SDS011;12204;50.600;4.608;2023-06-10T13:24:31;7.75;;;4.63;;
22415;SDS011;12204;50.600;4.608;2023-06-10T13:29:35;8.15;;;4.40;;
22415;SDS011;12204;50.600;4.608;2023-06-10T13:34:41;6.93;;;4.40;;
22415;SDS011;12204;50.600;4.608;2023-06-10T13:39:46;8.30;;;4.95;;
22415;SDS011;12204;50.600;4.608;2023-06-10T13:44:52;6.82;;;4.35;;
22415;SDS011;12204;50.600;4.608;2023-06-10T13:49:55;8.02;;;4.50;;
22415;SDS011;12204;50.600;4.608;2023-06-10T13:55:00;7.93;;;4.73;;
22415;SDS011;12204;50.600;4.608;2023-06-10T14:00:04;6.50;;;4.07;;
22415;SDS011;12204;50.600;4.608;2023-06-10T14:05:09;7.57;;;4.40;;
22415;SDS011;12204;50.600;4.608;2023-06-10T14:10:14;6.85;;;3.92;;
22415;SDS011;12204;50.600;4.608;2023-06-10T14:15:20;6.93;;;4.30;;
22415;SDS011;12204;50.600;4.608;2023-06-10T14:20:26;7.80;;;4.28;;
22415;SDS011;12204;50.600;4.608;2023-06-10T14:25:34;8.50;;;4.35;;
22415;SDS011;12204;50.600;4.608;2023-06-10T14:30:37;7.82;;;4.30;;
22415;SDS011;12204;50.600;4.608;2023-06-10T14:35:41;7.68;;;4.35;;
22415;SDS011;12204;50.600;4.608;2023-06-10T14:40:46;13.25;;;4.80;;
22415;SDS011;12204;50.600;4.608;2023-06-10T14:45:51;9.00;;;4.67;;
22415;SDS011;12204;50.600;4.608;2023-06-10T14:50:56;9.38;;;4.65;;
22415;SDS011;12204;50.600;4.608;2023-06-10T14:56:01;7.15;;;4.70;;
22415;SDS011;12204;50.600;4.608;2023-06-10T15:01:05;9.63;;;4.50;;
22415;SDS011;12204;50.600;4.608;2023-06-10T15:06:09;7.55;;;4.22;;
22415;SDS011;12204;50.600;4.608;2023-06-10T15:11:14;7.18;;;4.15;;
22415;SDS011;12204;50.600;4.608;2023-06-10T15:16:17;6.80;;;3.67;;
22415;SDS011;12204;50.600;4.608;2023-06-10T15:21:21;7.28;;;4.13;;
22415;SDS011;12204;50.600;4.608;2023-06-10T15:26:26;8.07;;;4.38;;
22415;SDS011;12204;50.600;4.608;2023-06-10T15:31:29;7.45;;;4.20;;
22415;SDS011;12204;50.600;4.608;2023-06-10T15:36:34;7.18;;;4.07;;
22415;SDS011;12204;50.600;4.608;2023-06-10T15:41:39;8.75;;;4.15;;
22415;SDS011;12204;50.600;4.608;2023-06-10T15:46:43;5.97;;;3.88;;
22415;SDS011;12204;50.600;4.608;2023-06-10T15:51:47;7.10;;;3.75;;
22415;SDS011;12204;50.600;4.608;2023-06-10T15:56:53;6.97;;;3.45;;
22415;SDS011;12204;50.600;4.608;2023-06-10T16:01:56;7.18;;;3.80;;
22415;SDS011;12204;50.600;4.608;2023-06-10T16:07:00;7.80;;;3.72;;
22415;SDS011;12204;50.600;4.608;2023-06-10T16:12:05;8.15;;;4.10;;
22415;SDS011;12204;50.600;4.608;2023-06-10T16:17:10;6.72;;;4.03;;
22415;SDS011;12204;50.600;4.608;2023-06-10T16:22:14;9.07;;;4.10;;
22415;SDS011;12204;50.600;4.608;2023-06-10T16:27:18;7.35;;;4.40;;
22415;SDS011;12204;50.600;4.608;2023-06-10T16:32:22;7.68;;;4.82;;
22415;SDS011;12204;50.600;4.608;2023-06-10T16:37:26;10.75;;;5.22;;
22415;SDS011;12204;50.600;4.608;2023-06-10T16:42:30;10.93;;;5.55;;
22415;SDS011;12204;50.600;4.608;2023-06-10T16:47:34;12.80;;;5.35;;
22415;SDS011;12204;50.600;4.608;2023-06-10T16:52:38;8.57;;;5.15;;
22415;SDS011;12204;50.600;4.608;2023-06-10T16:57:42;9.98;;;5.40;;
22415;SDS011;12204;50.600;4.608;2023-06-10T17:02:46;9.00;;;4.85;;
22415;SDS011;12204;50.600;4.608;2023-06-10T17:07:49;7.28;;;4.80;;
22415;SDS011;12204;50.600;4.608;2023-06-10T17:12:54;9.38;;;4.82;;
22415;SDS011;12204;50.600;4.608;2023-06-10T17:17:58;10.18;;;4.90;;
22415;SDS011;12204;50.600;4.608;2023-06-10T17:23:01;7.15;;;4.57;;
22415;SDS011;12204;50.600;4.608;2023-06-10T17:28:06;8.43;;;4.47;;
22415;SDS011;12204;50.600;4.608;2023-06-10T17:33:09;9.23;;;4.60;;
22415;SDS011;12204;50.600;4.608;2023-06-10T17:38:13;8.23;;;4.80;;
22415;SDS011;12204;50.600;4.608;2023-06-10T17:43:19;10.45;;;4.70;;
22415;SDS011;12204;50.600;4.608;2023-06-10T17:48:23;9.65;;;5.20;;
22415;SDS011;12204;50.600;4.608;2023-06-10T17:53:26;10.18;;;5.47;;
22415;SDS011;12204;50.600;4.608;2023-06-10T17:58:31;9.57;;;5.45;;
22415;SDS011;12204;50.600;4.608;2023-06-10T18:03:35;9.27;;;5.45;;
22415;SDS011;12204;50.600;4.608;2023-06-10T18:08:38;7.93;;;5.15;;
22415;SDS011;12204;50.600;4.608;2023-06-10T18:13:43;9.60;;;5.18;;
22415;SDS011;12204;50.600;4.608;2023-06-10T18:18:46;7.32;;;5.00;;
22415;SDS011;12204;50.600;4.608;2023-06-10T18:23:50;8.23;;;5.40;;
22415;SDS011;12204;50.600;4.608;2023-06-10T18:28:55;9.07;;;5.07;;
22415;SDS011;12204;50.600;4.608;2023-06-10T18:33:58;7.80;;;5.22;;
22415;SDS011;12204;50.600;4.608;2023-06-10T18:39:03;7.28;;;5.43;;
22415;SDS011;12204;50.600;4.608;2023-06-10T18:44:07;8.52;;;4.88;;
22415;SDS011;12204;50.600;4.608;2023-06-10T18:49:11;8.75;;;4.97;;
22415;SDS011;12204;50.600;4.608;2023-06-10T18:54:14;15.82;;;5.82;;
22415;SDS011;12204;50.600;4.608;2023-06-10T18:59:20;10.23;;;5.63;;
22415;SDS011;12204;50.600;4.608;2023-06-10T19:04:23;13.45;;;5.93;;
22415;SDS011;12204;50.600;4.608;2023-06-10T19:09:27;9.57;;;5.10;;
22415;SDS011;12204;50.600;4.608;2023-06-10T19:14:32;12.13;;;5.50;;
22415;SDS011;12204;50.600;4.608;2023-06-10T19:19:36;10.55;;;5.50;;
22415;SDS011;12204;50.600;4.608;2023-06-10T19:24:39;6.80;;;4.78;;
22415;SDS011;12204;50.600;4.608;2023-06-10T19:29:45;11.68;;;5.30;;
22415;SDS011;12204;50.600;4.608;2023-06-10T19:34:49;8.23;;;5.22;;
22415;SDS011;12204;50.600;4.608;2023-06-10T19:39:52;7.93;;;4.82;;
22415;SDS011;12204;50.600;4.608;2023-06-10T19:44:57;7.78;;;5.10;;
22415;SDS011;12204;50.600;4.608;2023-06-10T19:50:01;10.23;;;5.30;;
22415;SDS011;12204;50.600;4.608;2023-06-10T19:55:05;9.07;;;5.30;;
22415;SDS011;12204;50.600;4.608;2023-06-10T20:00:12;10.98;;;5.20;;
22415;SDS011;12204;50.600;4.608;2023-06-10T20:05:17;8.02;;;5.00;;
22415;SDS011;12204;50.600;4.608;2023-06-10T20:10:21;10.65;;;5.55;;
22415;SDS011;12204;50.600;4.608;2023-06-10T20:15:26;8.82;;;5.47;;
22415;SDS011;12204;50.600;4.608;2023-06-10T20:20:29;9.63;;;5.50;;
22415;SDS011;12204;50.600;4.608;2023-06-10T20:25:33;10.15;;;5.53;;
22415;SDS011;12204;50.600;4.608;2023-06-10T20:30:37;9.32;;;5.55;;
22415;SDS011;12204;50.600;4.608;2023-06-10T20:35:41;8.60;;;5.40;;
22415;SDS011;12204;50.600;4.608;2023-06-10T20:40:45;9.98;;;5.30;;
22415;SDS011;12204;50.600;4.608;2023-06-10T20:45:50;7.78;;;5.10;;
22415;SDS011;12204;50.600;4.608;2023-06-10T20:50:53;7.63;;;4.65;;
22415;SDS011;12204;50.600;4.608;2023-06-10T20:55:57;9.05;;;4.20;;
22415;SDS011;12204;50.600;4.608;2023-06-10T21:01:03;10.73;;;5.43;;
22415;SDS011;12204;50.600;4.608;2023-06-10T21:06:09;7.43;;;4.82;;
22415;SDS011;12204;50.600;4.608;2023-06-10T21:11:13;8.40;;;3.67;;
22415;SDS011;12204;50.600;4.608;2023-06-10T21:16:18;7.05;;;4.03;;
22415;SDS011;12204;50.600;4.608;2023-06-10T21:21:21;9.93;;;5.05;;
22415;SDS011;12204;50.600;4.608;2023-06-10T21:26:25;12.43;;;4.22;;
22415;SDS011;12204;50.600;4.608;2023-06-10T21:31:30;7.95;;;4.28;;
22415;SDS011;12204;50.600;4.608;2023-06-10T21:36:33;7.40;;;4.18;;
22415;SDS011;12204;50.600;4.608;2023-06-10T21:41:37;8.77;;;4.95;;
22415;SDS011;12204;50.600;4.608;2023-06-10T21:46:42;7.97;;;4.50;;
22415;SDS011;12204;50.600;4.608;2023-06-10T21:51:45;15.65;;;4.82;;
22415;SDS011;12204;50.600;4.608;2023-06-10T21:56:49;9.10;;;5.38;;
22415;SDS011;12204;50.600;4.608;2023-06-10T22:01:53;11.23;;;5.53;;
22415;SDS011;12204;50.600;4.608;2023-06-10T22:06:57;9.00;;;5.38;;
22415;SDS011;12204;50.600;4.608;2023-06-10T22:12:01;9.05;;;5.95;;
22415;SDS011;12204;50.600;4.608;2023-06-10T22:17:08;10.75;;;6.18;;
22415;SDS011;12204;50.600;4.608;2023-06-10T22:22:12;9.50;;;5.10;;
22415;SDS011;12204;50.600;4.608;2023-06-10T22:27:15;8.75;;;5.20;;
22415;SDS011;12204;50.600;4.608;2023-06-10T22:32:20;10.07;;;5.13;;
22415;SDS011;12204;50.600;4.608;2023-06-10T22:37:23;8.88;;;5.03;;
22415;SDS011;12204;50.600;4.608;2023-06-10T22:42:27;8.68;;;5.03;;
22415;SDS011;12204;50.600;4.608;2023-06-10T22:47:32;8.48;;;5.38;;
22415;SDS011;12204;50.600;4.608;2023-06-10T22:52:35;10.00;;;4.82;;
22415;SDS011;12204;50.600;4.608;2023-06-10T22:57:39;9.55;;;4.90;;
22415;SDS011;12204;50.600;4.608;2023-06-10T23:02:44;8.30;;;5.43;;
22415;SDS011;12204;50.600;4.608;2023-06-10T23:07:47;11.77;;;5.18;;
22415;SDS011;12204;50.600;4.608;2023-06-10T23:12:51;8.00;;;5.40;;
22415;SDS011;12204;50.600;4.608;2023-06-10T23:17:55;10.27;;;5.13;;
22415;SDS011;12204;50.600;4.608;2023-06-10T23:23:01;9.60;;;4.75;;
22415;SDS011;12204;50.600;4.608;2023-06-10T23:28:05;8.27;;;5.00;;
22415;SDS011;12204;50.600;4.608;2023-06-10T23:33:10;8.50;;;4.93;;
22415;SDS011;12204;50.600;4.608;2023-06-10T23:38:14;9.15;;;4.75;;
22415;SDS011;12204;50.600;4.608;2023-06-10T23:43:18;8.02;;;5.10;;
22415;SDS011;12204;50.600;4.608;2023-06-10T23:48:23;8.10;;;5.35;;
22415;SDS011;12204;50.600;4.608;2023-06-10T23:53:26;10.15;;;5.25;;
22415;SDS011;12204;50.600;4.608;2023-06-10T23:58:29;8.75;;;5.40;;
